メインページ
METAR-TAF:

METAR-TAF

空港 :

Marion Municipal Airport

マリオン, オハイオ州, アメリカ合衆国

緯度: 40-37-00N, 経度: 083-04-06W, 海抜: 303m

現時点の気象観測

当レポートは21分前の23:53(UTC)に作成
北東の風 7kt
気温 19°C
湿度 64%
気圧 1022 hPa
視程: 16.1km
晴天

METAR: KMNN 232353Z AUTO 04007KT 10SM CLR 19/12 A3017 RMK AO2 SLP214 T01890117 10233 20189 53004 $

時間: 20:14 (00:14 UTC)


TAF: 見つかりません

4,000以上の空港の気象観測と天気予報(METAR報とTAF報)

利用可能な観測所は地図上に黄色い丸と赤い丸で示す。

丸の上にカーソルを重ねると観測所名を参照できる。

次にクリックすると気象観測と天気予報を参照できる。

マップの切り替え:黒色「×」印の緑ボタンをクリックして拡大、「-」印の緑ボタンをクリックして縮小、緑色の三角印をクリックして隣りの地図に切り替え


METAR-TAF: